Dongara, Australia
Current Conditions -  °F | °C
As of 6:30 PM on Sunday 21 Dec 2014 (Local Time) from YGEL Reporting Station
Clear Clear  
Wind Chill: 70°   Ceiling: Unl
Heat Index: 70°   Visibility: 6mi
Dew Point: 61°   Wind: 24mph
Humidity: 73%   Direction: 180°S
Pressure: 29.85"   Gusts: NA
Location:  29.25°S, 114.93°E
Report Text: YGEL 211030Z AUTO 18021KT 9999 // NCD 21/16 Q1011
Loading
Personal Weather Stations






























Interactive Weather Map New forecast layout! Learn more

10-Day Weather Forecast

Advertisements
Track Severe Weather on mobile